sensor_id;sensor_type;location;lat;lon;timestamp;P1;durP1;ratioP1;P2;durP2;ratioP2
45236;SDS011;30973;51.442;3.580;2023-01-06T00:01:32;9.60;;;3.20;;
45236;SDS011;30973;51.442;3.580;2023-01-06T00:03:59;9.88;;;2.60;;
45236;SDS011;30973;51.442;3.580;2023-01-06T00:06:26;8.02;;;3.17;;
45236;SDS011;30973;51.442;3.580;2023-01-06T00:08:54;6.35;;;2.75;;
45236;SDS011;30973;51.442;3.580;2023-01-06T00:11:21;9.38;;;2.53;;
45236;SDS011;30973;51.442;3.580;2023-01-06T00:13:48;5.40;;;2.20;;
45236;SDS011;30973;51.442;3.580;2023-01-06T00:16:16;8.57;;;2.38;;
45236;SDS011;30973;51.442;3.580;2023-01-06T00:18:43;8.65;;;3.50;;
45236;SDS011;30973;51.442;3.580;2023-01-06T00:21:10;5.28;;;2.50;;
45236;SDS011;30973;51.442;3.580;2023-01-06T00:23:38;6.95;;;2.40;;
45236;SDS011;30973;51.442;3.580;2023-01-06T00:26:05;10.82;;;2.97;;
45236;SDS011;30973;51.442;3.580;2023-01-06T00:28:32;7.43;;;2.38;;
45236;SDS011;30973;51.442;3.580;2023-01-06T00:31:13;7.03;;;2.10;;
45236;SDS011;30973;51.442;3.580;2023-01-06T00:33:40;5.13;;;2.25;;
45236;SDS011;30973;51.442;3.580;2023-01-06T00:36:07;5.38;;;2.05;;
45236;SDS011;30973;51.442;3.580;2023-01-06T00:38:35;6.28;;;1.85;;
45236;SDS011;30973;51.442;3.580;2023-01-06T00:41:06;7.75;;;2.53;;
45236;SDS011;30973;51.442;3.580;2023-01-06T00:43:53;6.28;;;2.28;;
45236;SDS011;30973;51.442;3.580;2023-01-06T00:46:20;9.98;;;2.30;;
45236;SDS011;30973;51.442;3.580;2023-01-06T00:48:48;7.60;;;2.28;;
45236;SDS011;30973;51.442;3.580;2023-01-06T00:51:32;5.00;;;2.08;;
45236;SDS011;30973;51.442;3.580;2023-01-06T00:53:59;4.65;;;2.30;;
45236;SDS011;30973;51.442;3.580;2023-01-06T00:56:27;5.63;;;2.00;;
45236;SDS011;30973;51.442;3.580;2023-01-06T00:58:53;8.07;;;2.30;;
45236;SDS011;30973;51.442;3.580;2023-01-06T01:01:20;9.07;;;2.83;;
45236;SDS011;30973;51.442;3.580;2023-01-06T01:03:47;6.20;;;2.00;;
45236;SDS011;30973;51.442;3.580;2023-01-06T01:06:14;7.43;;;2.17;;
45236;SDS011;30973;51.442;3.580;2023-01-06T01:08:42;6.10;;;2.00;;
45236;SDS011;30973;51.442;3.580;2023-01-06T01:11:10;7.78;;;2.40;;
45236;SDS011;30973;51.442;3.580;2023-01-06T01:13:57;3.65;;;2.05;;
45236;SDS011;30973;51.442;3.580;2023-01-06T01:16:24;6.85;;;2.05;;
45236;SDS011;30973;51.442;3.580;2023-01-06T01:18:51;4.82;;;1.88;;
45236;SDS011;30973;51.442;3.580;2023-01-06T01:21:19;6.72;;;1.90;;
45236;SDS011;30973;51.442;3.580;2023-01-06T01:23:45;5.30;;;1.88;;
45236;SDS011;30973;51.442;3.580;2023-01-06T01:26:12;4.22;;;1.80;;
45236;SDS011;30973;51.442;3.580;2023-01-06T01:28:39;7.80;;;2.00;;
45236;SDS011;30973;51.442;3.580;2023-01-06T01:31:06;5.05;;;1.98;;
45236;SDS011;30973;51.442;3.580;2023-01-06T01:33:33;7.65;;;2.47;;
45236;SDS011;30973;51.442;3.580;2023-01-06T01:36:06;5.70;;;2.88;;
45236;SDS011;30973;51.442;3.580;2023-01-06T01:38:33;4.32;;;1.70;;
45236;SDS011;30973;51.442;3.580;2023-01-06T01:41:00;6.35;;;2.20;;
45236;SDS011;30973;51.442;3.580;2023-01-06T01:46:09;8.65;;;2.17;;
45236;SDS011;30973;51.442;3.580;2023-01-06T01:48:36;3.63;;;1.45;;
45236;SDS011;30973;51.442;3.580;2023-01-06T01:51:05;2.53;;;1.25;;
45236;SDS011;30973;51.442;3.580;2023-01-06T01:53:43;7.05;;;2.25;;
45236;SDS011;30973;51.442;3.580;2023-01-06T01:56:11;8.07;;;1.90;;
45236;SDS011;30973;51.442;3.580;2023-01-06T02:01:08;5.95;;;1.75;;
45236;SDS011;30973;51.442;3.580;2023-01-06T02:03:36;7.10;;;2.30;;
45236;SDS011;30973;51.442;3.580;2023-01-06T02:06:04;6.15;;;2.40;;
45236;SDS011;30973;51.442;3.580;2023-01-06T02:08:35;7.57;;;2.00;;
45236;SDS011;30973;51.442;3.580;2023-01-06T02:11:03;7.22;;;2.30;;
45236;SDS011;30973;51.442;3.580;2023-01-06T02:13:30;5.90;;;1.85;;
45236;SDS011;30973;51.442;3.580;2023-01-06T02:31:54;5.20;;;1.63;;
45236;SDS011;30973;51.442;3.580;2023-01-06T02:42:01;6.55;;;1.90;;
45236;SDS011;30973;51.442;3.580;2023-01-06T02:44:43;7.57;;;1.55;;
45236;SDS011;30973;51.442;3.580;2023-01-06T02:47:19;4.93;;;1.60;;
45236;SDS011;30973;51.442;3.580;2023-01-06T02:55:19;5.60;;;1.55;;
45236;SDS011;30973;51.442;3.580;2023-01-06T03:02:44;7.32;;;1.65;;
45236;SDS011;30973;51.442;3.580;2023-01-06T03:05:15;5.07;;;1.90;;
45236;SDS011;30973;51.442;3.580;2023-01-06T03:07:43;4.78;;;1.52;;
45236;SDS011;30973;51.442;3.580;2023-01-06T03:10:12;6.32;;;1.45;;
45236;SDS011;30973;51.442;3.580;2023-01-06T03:12:42;5.15;;;1.50;;
45236;SDS011;30973;51.442;3.580;2023-01-06T03:15:11;4.82;;;1.67;;
45236;SDS011;30973;51.442;3.580;2023-01-06T03:17:38;9.90;;;1.77;;
45236;SDS011;30973;51.442;3.580;2023-01-06T03:20:05;7.03;;;1.98;;
45236;SDS011;30973;51.442;3.580;2023-01-06T03:22:33;6.35;;;1.60;;
45236;SDS011;30973;51.442;3.580;2023-01-06T03:25:00;6.03;;;1.70;;
45236;SDS011;30973;51.442;3.580;2023-01-06T03:27:28;2.97;;;1.50;;
45236;SDS011;30973;51.442;3.580;2023-01-06T03:29:55;10.45;;;1.85;;
45236;SDS011;30973;51.442;3.580;2023-01-06T03:32:40;5.63;;;2.15;;
45236;SDS011;30973;51.442;3.580;2023-01-06T03:40:34;2.35;;;1.30;;
45236;SDS011;30973;51.442;3.580;2023-01-06T03:45:42;4.15;;;1.77;;
45236;SDS011;30973;51.442;3.580;2023-01-06T03:53:15;5.88;;;1.75;;
45236;SDS011;30973;51.442;3.580;2023-01-06T03:55:46;4.05;;;1.50;;
45236;SDS011;30973;51.442;3.580;2023-01-06T03:58:14;3.63;;;1.65;;
45236;SDS011;30973;51.442;3.580;2023-01-06T04:00:43;6.10;;;1.77;;
45236;SDS011;30973;51.442;3.580;2023-01-06T04:03:10;7.28;;;1.50;;
45236;SDS011;30973;51.442;3.580;2023-01-06T04:05:40;4.53;;;1.77;;
45236;SDS011;30973;51.442;3.580;2023-01-06T04:08:08;6.10;;;1.40;;
45236;SDS011;30973;51.442;3.580;2023-01-06T04:10:38;3.50;;;1.40;;
45236;SDS011;30973;51.442;3.580;2023-01-06T04:13:05;2.95;;;1.23;;
45236;SDS011;30973;51.442;3.580;2023-01-06T04:15:33;6.45;;;1.40;;
45236;SDS011;30973;51.442;3.580;2023-01-06T04:18:03;2.85;;;1.33;;
45236;SDS011;30973;51.442;3.580;2023-01-06T04:20:33;4.72;;;1.30;;
45236;SDS011;30973;51.442;3.580;2023-01-06T04:23:08;5.85;;;1.30;;
45236;SDS011;30973;51.442;3.580;2023-01-06T04:25:38;4.20;;;1.05;;
45236;SDS011;30973;51.442;3.580;2023-01-06T04:28:12;3.53;;;1.27;;
45236;SDS011;30973;51.442;3.580;2023-01-06T04:30:39;7.25;;;1.48;;
45236;SDS011;30973;51.442;3.580;2023-01-06T04:33:06;4.38;;;1.85;;
45236;SDS011;30973;51.442;3.580;2023-01-06T04:35:34;5.15;;;1.52;;
45236;SDS011;30973;51.442;3.580;2023-01-06T04:38:01;3.60;;;1.20;;
45236;SDS011;30973;51.442;3.580;2023-01-06T04:40:28;2.17;;;1.00;;
45236;SDS011;30973;51.442;3.580;2023-01-06T04:42:55;2.28;;;0.90;;
45236;SDS011;30973;51.442;3.580;2023-01-06T04:45:31;3.00;;;1.35;;
45236;SDS011;30973;51.442;3.580;2023-01-06T04:47:58;3.70;;;1.30;;
45236;SDS011;30973;51.442;3.580;2023-01-06T04:50:25;4.10;;;1.13;;
45236;SDS011;30973;51.442;3.580;2023-01-06T04:52:51;3.40;;;0.95;;
45236;SDS011;30973;51.442;3.580;2023-01-06T04:55:18;3.85;;;1.10;;
45236;SDS011;30973;51.442;3.580;2023-01-06T04:57:45;3.85;;;1.00;;
45236;SDS011;30973;51.442;3.580;2023-01-06T05:00:12;1.75;;;1.00;;
45236;SDS011;30973;51.442;3.580;2023-01-06T05:02:39;2.97;;;1.17;;
45236;SDS011;30973;51.442;3.580;2023-01-06T05:05:06;3.53;;;1.10;;
45236;SDS011;30973;51.442;3.580;2023-01-06T05:07:33;3.83;;;1.42;;
45236;SDS011;30973;51.442;3.580;2023-01-06T05:09:59;3.42;;;1.50;;
45236;SDS011;30973;51.442;3.580;2023-01-06T05:12:26;2.47;;;0.93;;
45236;SDS011;30973;51.442;3.580;2023-01-06T05:14:53;3.40;;;1.42;;
45236;SDS011;30973;51.442;3.580;2023-01-06T05:17:19;3.78;;;1.40;;
45236;SDS011;30973;51.442;3.580;2023-01-06T05:19:46;3.00;;;1.30;;
45236;SDS011;30973;51.442;3.580;2023-01-06T05:22:13;4.70;;;1.27;;
45236;SDS011;30973;51.442;3.580;2023-01-06T05:24:40;3.45;;;1.35;;
45236;SDS011;30973;51.442;3.580;2023-01-06T05:27:06;4.43;;;1.40;;
45236;SDS011;30973;51.442;3.580;2023-01-06T05:29:33;3.95;;;1.30;;
45236;SDS011;30973;51.442;3.580;2023-01-06T05:32:00;4.50;;;1.58;;
45236;SDS011;30973;51.442;3.580;2023-01-06T05:34:27;3.75;;;1.75;;
45236;SDS011;30973;51.442;3.580;2023-01-06T05:36:54;2.78;;;1.40;;
45236;SDS011;30973;51.442;3.580;2023-01-06T05:39:23;2.60;;;1.38;;
45236;SDS011;30973;51.442;3.580;2023-01-06T05:41:50;5.65;;;1.63;;
45236;SDS011;30973;51.442;3.580;2023-01-06T05:44:17;4.03;;;1.80;;
45236;SDS011;30973;51.442;3.580;2023-01-06T05:46:46;2.78;;;1.60;;
45236;SDS011;30973;51.442;3.580;2023-01-06T05:49:12;2.90;;;1.60;;
45236;SDS011;30973;51.442;3.580;2023-01-06T05:51:39;4.00;;;1.60;;
45236;SDS011;30973;51.442;3.580;2023-01-06T05:54:06;4.72;;;1.60;;
45236;SDS011;30973;51.442;3.580;2023-01-06T05:56:34;4.03;;;1.55;;
45236;SDS011;30973;51.442;3.580;2023-01-06T05:59:01;3.35;;;1.50;;
45236;SDS011;30973;51.442;3.580;2023-01-06T06:01:28;3.58;;;1.55;;
45236;SDS011;30973;51.442;3.580;2023-01-06T06:03:56;2.72;;;1.90;;
45236;SDS011;30973;51.442;3.580;2023-01-06T06:06:24;3.15;;;1.42;;
45236;SDS011;30973;51.442;3.580;2023-01-06T06:08:51;3.80;;;1.40;;
45236;SDS011;30973;51.442;3.580;2023-01-06T06:11:18;2.65;;;1.55;;
45236;SDS011;30973;51.442;3.580;2023-01-06T06:13:53;4.65;;;1.65;;
45236;SDS011;30973;51.442;3.580;2023-01-06T06:16:21;3.58;;;1.40;;
45236;SDS011;30973;51.442;3.580;2023-01-06T06:18:52;2.92;;;1.60;;
45236;SDS011;30973;51.442;3.580;2023-01-06T06:21:20;2.35;;;1.27;;
45236;SDS011;30973;51.442;3.580;2023-01-06T06:23:47;4.43;;;1.50;;
45236;SDS011;30973;51.442;3.580;2023-01-06T06:26:14;5.53;;;1.50;;
45236;SDS011;30973;51.442;3.580;2023-01-06T06:28:41;4.20;;;1.63;;
45236;SDS011;30973;51.442;3.580;2023-01-06T06:31:21;6.97;;;1.98;;
45236;SDS011;30973;51.442;3.580;2023-01-06T06:33:49;4.05;;;1.83;;
45236;SDS011;30973;51.442;3.580;2023-01-06T06:36:16;3.78;;;1.58;;
45236;SDS011;30973;51.442;3.580;2023-01-06T06:38:43;4.55;;;2.05;;
45236;SDS011;30973;51.442;3.580;2023-01-06T06:41:10;5.63;;;1.95;;
45236;SDS011;30973;51.442;3.580;2023-01-06T06:43:37;7.95;;;2.60;;
45236;SDS011;30973;51.442;3.580;2023-01-06T06:46:04;4.85;;;2.00;;
45236;SDS011;30973;51.442;3.580;2023-01-06T06:48:31;4.22;;;1.65;;
45236;SDS011;30973;51.442;3.580;2023-01-06T06:50:59;4.85;;;2.25;;
45236;SDS011;30973;51.442;3.580;2023-01-06T06:53:26;6.13;;;2.40;;
45236;SDS011;30973;51.442;3.580;2023-01-06T06:55:53;5.68;;;2.30;;
45236;SDS011;30973;51.442;3.580;2023-01-06T06:58:20;6.00;;;2.10;;
45236;SDS011;30973;51.442;3.580;2023-01-06T07:00:48;5.18;;;1.85;;
45236;SDS011;30973;51.442;3.580;2023-01-06T07:03:14;7.95;;;2.60;;
45236;SDS011;30973;51.442;3.580;2023-01-06T07:05:42;8.07;;;2.28;;
45236;SDS011;30973;51.442;3.580;2023-01-06T07:08:09;8.65;;;2.10;;
45236;SDS011;30973;51.442;3.580;2023-01-06T07:10:36;5.82;;;2.25;;
45236;SDS011;30973;51.442;3.580;2023-01-06T07:13:02;6.90;;;2.00;;
45236;SDS011;30973;51.442;3.580;2023-01-06T07:15:31;9.13;;;2.33;;
45236;SDS011;30973;51.442;3.580;2023-01-06T07:17:58;6.82;;;2.33;;
45236;SDS011;30973;51.442;3.580;2023-01-06T07:20:25;8.52;;;2.17;;
45236;SDS011;30973;51.442;3.580;2023-01-06T07:22:52;12.45;;;2.13;;
45236;SDS011;30973;51.442;3.580;2023-01-06T07:25:18;10.13;;;2.15;;
45236;SDS011;30973;51.442;3.580;2023-01-06T07:27:49;7.10;;;1.92;;
45236;SDS011;30973;51.442;3.580;2023-01-06T07:30:21;15.65;;;4.20;;
45236;SDS011;30973;51.442;3.580;2023-01-06T07:32:48;13.23;;;2.72;;
45236;SDS011;30973;51.442;3.580;2023-01-06T07:35:15;20.42;;;3.30;;
45236;SDS011;30973;51.442;3.580;2023-01-06T07:37:42;21.90;;;3.38;;
45236;SDS011;30973;51.442;3.580;2023-01-06T07:40:09;14.02;;;3.10;;
45236;SDS011;30973;51.442;3.580;2023-01-06T07:42:36;17.27;;;3.45;;
45236;SDS011;30973;51.442;3.580;2023-01-06T07:45:03;17.83;;;3.40;;
45236;SDS011;30973;51.442;3.580;2023-01-06T07:47:30;23.42;;;4.15;;
45236;SDS011;30973;51.442;3.580;2023-01-06T07:49:57;21.83;;;3.80;;
45236;SDS011;30973;51.442;3.580;2023-01-06T07:52:23;19.35;;;4.68;;
45236;SDS011;30973;51.442;3.580;2023-01-06T07:54:50;22.48;;;3.63;;
45236;SDS011;30973;51.442;3.580;2023-01-06T07:57:17;19.05;;;3.70;;
45236;SDS011;30973;51.442;3.580;2023-01-06T07:59:44;17.52;;;3.42;;
45236;SDS011;30973;51.442;3.580;2023-01-06T08:02:10;22.15;;;5.07;;
45236;SDS011;30973;51.442;3.580;2023-01-06T08:04:37;17.55;;;4.70;;
45236;SDS011;30973;51.442;3.580;2023-01-06T08:07:04;25.17;;;3.30;;
45236;SDS011;30973;51.442;3.580;2023-01-06T08:09:31;16.00;;;3.25;;
45236;SDS011;30973;51.442;3.580;2023-01-06T08:11:57;18.55;;;3.03;;
45236;SDS011;30973;51.442;3.580;2023-01-06T08:14:25;15.02;;;3.42;;
45236;SDS011;30973;51.442;3.580;2023-01-06T08:16:52;10.80;;;2.50;;
45236;SDS011;30973;51.442;3.580;2023-01-06T08:19:18;13.00;;;2.85;;
45236;SDS011;30973;51.442;3.580;2023-01-06T08:21:45;13.05;;;2.42;;
45236;SDS011;30973;51.442;3.580;2023-01-06T08:24:12;14.80;;;2.70;;
45236;SDS011;30973;51.442;3.580;2023-01-06T08:26:41;16.88;;;2.28;;
45236;SDS011;30973;51.442;3.580;2023-01-06T08:29:08;10.32;;;2.08;;
45236;SDS011;30973;51.442;3.580;2023-01-06T08:31:34;17.48;;;2.50;;
45236;SDS011;30973;51.442;3.580;2023-01-06T08:34:01;9.27;;;2.88;;
45236;SDS011;30973;51.442;3.580;2023-01-06T08:36:28;11.38;;;3.03;;
45236;SDS011;30973;51.442;3.580;2023-01-06T08:38:55;13.35;;;2.90;;
45236;SDS011;30973;51.442;3.580;2023-01-06T08:41:21;9.20;;;2.08;;
45236;SDS011;30973;51.442;3.580;2023-01-06T08:43:48;13.18;;;2.72;;
45236;SDS011;30973;51.442;3.580;2023-01-06T08:46:16;10.27;;;2.35;;
45236;SDS011;30973;51.442;3.580;2023-01-06T08:48:43;13.05;;;2.28;;
45236;SDS011;30973;51.442;3.580;2023-01-06T08:51:11;8.93;;;2.00;;
45236;SDS011;30973;51.442;3.580;2023-01-06T08:53:38;8.60;;;2.33;;
45236;SDS011;30973;51.442;3.580;2023-01-06T08:59:01;5.90;;;1.40;;
45236;SDS011;30973;51.442;3.580;2023-01-06T09:01:30;12.32;;;2.53;;
45236;SDS011;30973;51.442;3.580;2023-01-06T09:03:58;12.23;;;2.35;;
45236;SDS011;30973;51.442;3.580;2023-01-06T09:06:26;8.60;;;1.48;;
45236;SDS011;30973;51.442;3.580;2023-01-06T09:08:53;6.00;;;1.42;;
45236;SDS011;30973;51.442;3.580;2023-01-06T09:11:21;12.60;;;1.85;;
45236;SDS011;30973;51.442;3.580;2023-01-06T09:13:48;12.90;;;1.70;;
45236;SDS011;30973;51.442;3.580;2023-01-06T09:16:16;16.10;;;3.13;;
45236;SDS011;30973;51.442;3.580;2023-01-06T09:18:43;6.78;;;2.17;;
45236;SDS011;30973;51.442;3.580;2023-01-06T09:21:15;7.35;;;1.90;;
45236;SDS011;30973;51.442;3.580;2023-01-06T09:23:43;11.70;;;2.22;;
45236;SDS011;30973;51.442;3.580;2023-01-06T09:26:09;11.05;;;2.08;;
45236;SDS011;30973;51.442;3.580;2023-01-06T09:28:36;9.57;;;2.40;;
45236;SDS011;30973;51.442;3.580;2023-01-06T09:31:03;9.20;;;2.08;;
45236;SDS011;30973;51.442;3.580;2023-01-06T09:33:30;13.10;;;2.42;;
45236;SDS011;30973;51.442;3.580;2023-01-06T09:35:57;9.43;;;2.10;;
45236;SDS011;30973;51.442;3.580;2023-01-06T09:38:23;10.18;;;2.15;;
45236;SDS011;30973;51.442;3.580;2023-01-06T09:43:31;6.80;;;1.85;;
45236;SDS011;30973;51.442;3.580;2023-01-06T09:46:00;6.72;;;1.60;;
45236;SDS011;30973;51.442;3.580;2023-01-06T09:51:14;8.18;;;1.85;;
45236;SDS011;30973;51.442;3.580;2023-01-06T09:56:28;10.77;;;1.63;;
45236;SDS011;30973;51.442;3.580;2023-01-06T09:59:03;8.68;;;1.67;;
45236;SDS011;30973;51.442;3.580;2023-01-06T10:01:33;8.77;;;1.85;;
45236;SDS011;30973;51.442;3.580;2023-01-06T10:04:02;4.57;;;1.50;;
45236;SDS011;30973;51.442;3.580;2023-01-06T10:07:15;6.57;;;1.40;;
45236;SDS011;30973;51.442;3.580;2023-01-06T10:12:05;7.50;;;1.40;;
45236;SDS011;30973;51.442;3.580;2023-01-06T10:23:08;9.15;;;1.38;;
45236;SDS011;30973;51.442;3.580;2023-01-06T10:25:45;6.10;;;2.28;;
45236;SDS011;30973;51.442;3.580;2023-01-06T10:30:48;8.82;;;1.55;;
45236;SDS011;30973;51.442;3.580;2023-01-06T10:33:28;9.43;;;2.60;;
45236;SDS011;30973;51.442;3.580;2023-01-06T10:35:57;13.18;;;2.38;;
45236;SDS011;30973;51.442;3.580;2023-01-06T10:38:26;11.48;;;2.00;;
45236;SDS011;30973;51.442;3.580;2023-01-06T10:40:54;8.45;;;2.92;;
45236;SDS011;30973;51.442;3.580;2023-01-06T10:43:21;9.63;;;2.75;;
45236;SDS011;30973;51.442;3.580;2023-01-06T10:45:48;10.13;;;2.88;;
45236;SDS011;30973;51.442;3.580;2023-01-06T10:48:22;11.35;;;2.58;;
45236;SDS011;30973;51.442;3.580;2023-01-06T10:50:50;11.88;;;2.38;;
45236;SDS011;30973;51.442;3.580;2023-01-06T10:53:17;12.88;;;2.45;;
45236;SDS011;30973;51.442;3.580;2023-01-06T10:55:53;10.40;;;2.15;;
45236;SDS011;30973;51.442;3.580;2023-01-06T11:01:02;10.52;;;2.28;;
45236;SDS011;30973;51.442;3.580;2023-01-06T11:03:32;8.98;;;1.70;;
45236;SDS011;30973;51.442;3.580;2023-01-06T11:08:30;7.03;;;1.67;;
45236;SDS011;30973;51.442;3.580;2023-01-06T11:10:56;9.80;;;1.73;;
45236;SDS011;30973;51.442;3.580;2023-01-06T11:13:36;9.02;;;1.77;;
45236;SDS011;30973;51.442;3.580;2023-01-06T11:16:04;9.85;;;2.00;;
45236;SDS011;30973;51.442;3.580;2023-01-06T11:18:32;5.68;;;1.40;;
45236;SDS011;30973;51.442;3.580;2023-01-06T11:21:00;10.30;;;1.95;;
45236;SDS011;30973;51.442;3.580;2023-01-06T11:23:30;5.20;;;1.58;;
45236;SDS011;30973;51.442;3.580;2023-01-06T11:28:35;17.02;;;2.03;;
45236;SDS011;30973;51.442;3.580;2023-01-06T11:31:03;7.32;;;1.73;;
45236;SDS011;30973;51.442;3.580;2023-01-06T11:33:31;12.35;;;1.75;;
45236;SDS011;30973;51.442;3.580;2023-01-06T11:36:04;10.82;;;2.17;;
45236;SDS011;30973;51.442;3.580;2023-01-06T11:38:32;9.25;;;1.73;;
45236;SDS011;30973;51.442;3.580;2023-01-06T11:41:06;8.05;;;1.90;;
45236;SDS011;30973;51.442;3.580;2023-01-06T11:43:33;12.13;;;1.98;;
45236;SDS011;30973;51.442;3.580;2023-01-06T11:46:01;10.48;;;2.50;;
45236;SDS011;30973;51.442;3.580;2023-01-06T11:48:30;9.73;;;2.40;;
45236;SDS011;30973;51.442;3.580;2023-01-06T11:50:59;9.27;;;1.65;;
45236;SDS011;30973;51.442;3.580;2023-01-06T11:53:26;13.55;;;2.25;;
45236;SDS011;30973;51.442;3.580;2023-01-06T11:58:45;9.27;;;2.20;;
45236;SDS011;30973;51.442;3.580;2023-01-06T12:01:15;9.70;;;1.90;;
45236;SDS011;30973;51.442;3.580;2023-01-06T12:03:46;8.40;;;2.20;;
45236;SDS011;30973;51.442;3.580;2023-01-06T12:06:33;9.23;;;2.47;;
45236;SDS011;30973;51.442;3.580;2023-01-06T12:09:03;9.93;;;3.30;;
45236;SDS011;30973;51.442;3.580;2023-01-06T12:11:43;7.85;;;2.50;;
45236;SDS011;30973;51.442;3.580;2023-01-06T12:14:11;9.50;;;3.50;;
45236;SDS011;30973;51.442;3.580;2023-01-06T12:16:55;11.55;;;2.67;;
45236;SDS011;30973;51.442;3.580;2023-01-06T12:19:30;11.18;;;3.50;;
45236;SDS011;30973;51.442;3.580;2023-01-06T12:21:58;9.68;;;3.47;;
45236;SDS011;30973;51.442;3.580;2023-01-06T12:24:25;13.02;;;4.10;;
45236;SDS011;30973;51.442;3.580;2023-01-06T12:26:55;11.88;;;4.70;;
45236;SDS011;30973;51.442;3.580;2023-01-06T12:29:22;12.90;;;4.50;;
45236;SDS011;30973;51.442;3.580;2023-01-06T12:34:27;13.25;;;4.70;;
45236;SDS011;30973;51.442;3.580;2023-01-06T12:36:57;12.15;;;4.32;;
45236;SDS011;30973;51.442;3.580;2023-01-06T12:39:37;12.70;;;4.15;;
45236;SDS011;30973;51.442;3.580;2023-01-06T12:42:15;8.13;;;3.30;;
45236;SDS011;30973;51.442;3.580;2023-01-06T12:44:49;8.85;;;3.28;;
45236;SDS011;30973;51.442;3.580;2023-01-06T12:49:51;7.43;;;2.83;;
45236;SDS011;30973;51.442;3.580;2023-01-06T12:52:32;6.15;;;2.00;;
45236;SDS011;30973;51.442;3.580;2023-01-06T12:55:00;9.52;;;1.65;;
45236;SDS011;30973;51.442;3.580;2023-01-06T13:00:03;9.57;;;2.47;;
45236;SDS011;30973;51.442;3.580;2023-01-06T13:05:10;9.27;;;1.98;;
45236;SDS011;30973;51.442;3.580;2023-01-06T13:07:45;11.85;;;2.00;;
45236;SDS011;30973;51.442;3.580;2023-01-06T13:10:23;7.75;;;2.08;;
45236;SDS011;30973;51.442;3.580;2023-01-06T13:13:04;8.57;;;1.60;;
45236;SDS011;30973;51.442;3.580;2023-01-06T13:15:35;11.90;;;2.05;;
45236;SDS011;30973;51.442;3.580;2023-01-06T13:18:09;7.72;;;1.98;;
45236;SDS011;30973;51.442;3.580;2023-01-06T13:20:46;10.05;;;2.00;;
45236;SDS011;30973;51.442;3.580;2023-01-06T13:38:52;11.20;;;1.38;;
45236;SDS011;30973;51.442;3.580;2023-01-06T13:41:21;9.93;;;2.15;;
45236;SDS011;30973;51.442;3.580;2023-01-06T13:43:50;6.55;;;1.42;;
45236;SDS011;30973;51.442;3.580;2023-01-06T13:46:19;6.78;;;1.65;;
45236;SDS011;30973;51.442;3.580;2023-01-06T13:48:49;8.25;;;3.10;;
45236;SDS011;30973;51.442;3.580;2023-01-06T13:51:19;10.02;;;1.88;;
45236;SDS011;30973;51.442;3.580;2023-01-06T13:53:46;9.32;;;1.52;;
45236;SDS011;30973;51.442;3.580;2023-01-06T13:58:43;10.30;;;2.00;;
45236;SDS011;30973;51.442;3.580;2023-01-06T14:03:37;7.85;;;1.58;;
45236;SDS011;30973;51.442;3.580;2023-01-06T14:06:06;6.28;;;1.50;;
45236;SDS011;30973;51.442;3.580;2023-01-06T14:08:46;10.55;;;2.17;;
45236;SDS011;30973;51.442;3.580;2023-01-06T14:11:23;9.68;;;1.90;;
45236;SDS011;30973;51.442;3.580;2023-01-06T14:13:51;8.15;;;1.80;;
45236;SDS011;30973;51.442;3.580;2023-01-06T14:16:19;8.27;;;1.60;;
45236;SDS011;30973;51.442;3.580;2023-01-06T14:18:49;5.45;;;1.20;;
45236;SDS011;30973;51.442;3.580;2023-01-06T14:26:42;13.13;;;2.38;;
45236;SDS011;30973;51.442;3.580;2023-01-06T14:31:53;6.93;;;1.70;;
45236;SDS011;30973;51.442;3.580;2023-01-06T14:34:20;8.02;;;1.60;;
45236;SDS011;30973;51.442;3.580;2023-01-06T14:36:48;5.65;;;1.60;;
45236;SDS011;30973;51.442;3.580;2023-01-06T14:39:21;8.85;;;1.75;;
45236;SDS011;30973;51.442;3.580;2023-01-06T14:44:29;8.85;;;2.20;;
45236;SDS011;30973;51.442;3.580;2023-01-06T14:47:01;6.65;;;1.77;;
45236;SDS011;30973;51.442;3.580;2023-01-06T14:52:17;7.22;;;1.92;;
45236;SDS011;30973;51.442;3.580;2023-01-06T14:54:45;8.65;;;1.85;;
45236;SDS011;30973;51.442;3.580;2023-01-06T15:00:16;11.65;;;2.17;;
45236;SDS011;30973;51.442;3.580;2023-01-06T15:02:46;9.43;;;2.25;;
45236;SDS011;30973;51.442;3.580;2023-01-06T15:05:22;20.13;;;10.50;;
45236;SDS011;30973;51.442;3.580;2023-01-06T15:10:18;10.52;;;2.03;;
45236;SDS011;30973;51.442;3.580;2023-01-06T15:12:49;7.13;;;2.20;;
45236;SDS011;30973;51.442;3.580;2023-01-06T15:15:29;13.52;;;2.55;;
45236;SDS011;30973;51.442;3.580;2023-01-06T15:17:57;10.10;;;2.33;;
45236;SDS011;30973;51.442;3.580;2023-01-06T15:20:28;6.47;;;2.05;;
45236;SDS011;30973;51.442;3.580;2023-01-06T15:22:56;13.43;;;3.17;;
45236;SDS011;30973;51.442;3.580;2023-01-06T15:25:25;12.18;;;3.20;;
45236;SDS011;30973;51.442;3.580;2023-01-06T15:27:53;16.08;;;3.38;;
45236;SDS011;30973;51.442;3.580;2023-01-06T15:30:25;9.90;;;2.95;;
45236;SDS011;30973;51.442;3.580;2023-01-06T15:32:52;11.05;;;3.22;;
45236;SDS011;30973;51.442;3.580;2023-01-06T15:35:24;12.55;;;3.00;;
45236;SDS011;30973;51.442;3.580;2023-01-06T15:38:06;8.15;;;2.40;;
45236;SDS011;30973;51.442;3.580;2023-01-06T15:40:37;6.03;;;2.35;;
45236;SDS011;30973;51.442;3.580;2023-01-06T15:43:06;6.25;;;2.47;;
45236;SDS011;30973;51.442;3.580;2023-01-06T15:45:32;7.63;;;2.88;;
45236;SDS011;30973;51.442;3.580;2023-01-06T15:48:00;7.00;;;2.28;;
45236;SDS011;30973;51.442;3.580;2023-01-06T15:50:32;4.47;;;2.13;;
45236;SDS011;30973;51.442;3.580;2023-01-06T15:53:00;4.18;;;2.30;;
45236;SDS011;30973;51.442;3.580;2023-01-06T15:55:32;9.90;;;2.55;;
45236;SDS011;30973;51.442;3.580;2023-01-06T15:58:01;7.90;;;2.58;;
45236;SDS011;30973;51.442;3.580;2023-01-06T16:00:33;5.25;;;1.92;;
45236;SDS011;30973;51.442;3.580;2023-01-06T16:03:01;4.10;;;1.65;;
45236;SDS011;30973;51.442;3.580;2023-01-06T16:08:02;4.70;;;1.73;;
45236;SDS011;30973;51.442;3.580;2023-01-06T16:10:35;8.70;;;2.05;;
45236;SDS011;30973;51.442;3.580;2023-01-06T16:15:52;4.07;;;1.70;;
45236;SDS011;30973;51.442;3.580;2023-01-06T16:18:53;3.42;;;1.70;;
45236;SDS011;30973;51.442;3.580;2023-01-06T16:21:19;3.85;;;1.42;;
45236;SDS011;30973;51.442;3.580;2023-01-06T16:23:54;4.07;;;1.50;;
45236;SDS011;30973;51.442;3.580;2023-01-06T16:26:40;3.85;;;1.70;;
45236;SDS011;30973;51.442;3.580;2023-01-06T16:29:24;3.60;;;2.08;;
45236;SDS011;30973;51.442;3.580;2023-01-06T16:31:51;5.53;;;2.40;;
45236;SDS011;30973;51.442;3.580;2023-01-06T16:36:44;5.40;;;2.63;;
45236;SDS011;30973;51.442;3.580;2023-01-06T16:39:12;3.38;;;2.47;;
45236;SDS011;30973;51.442;3.580;2023-01-06T16:46:50;4.53;;;3.00;;
45236;SDS011;30973;51.442;3.580;2023-01-06T16:49:17;5.72;;;3.53;;
45236;SDS011;30973;51.442;3.580;2023-01-06T16:51:44;4.38;;;3.20;;
45236;SDS011;30973;51.442;3.580;2023-01-06T16:54:13;12.57;;;4.90;;
45236;SDS011;30973;51.442;3.580;2023-01-06T16:56:43;7.32;;;4.32;;
45236;SDS011;30973;51.442;3.580;2023-01-06T16:59:11;7.00;;;4.40;;
45236;SDS011;30973;51.442;3.580;2023-01-06T17:01:38;6.18;;;4.63;;
45236;SDS011;30973;51.442;3.580;2023-01-06T17:04:05;7.05;;;4.60;;
45236;SDS011;30973;51.442;3.580;2023-01-06T17:06:37;6.75;;;4.85;;
45236;SDS011;30973;51.442;3.580;2023-01-06T17:09:17;5.65;;;4.30;;
45236;SDS011;30973;51.442;3.580;2023-01-06T17:11:44;5.68;;;4.03;;
45236;SDS011;30973;51.442;3.580;2023-01-06T17:14:13;4.78;;;3.70;;
45236;SDS011;30973;51.442;3.580;2023-01-06T17:16:40;5.88;;;4.03;;
45236;SDS011;30973;51.442;3.580;2023-01-06T17:19:19;7.47;;;4.15;;
45236;SDS011;30973;51.442;3.580;2023-01-06T17:21:49;5.50;;;4.10;;
45236;SDS011;30973;51.442;3.580;2023-01-06T17:24:22;4.40;;;4.00;;
45236;SDS011;30973;51.442;3.580;2023-01-06T17:26:56;7.80;;;4.50;;
45236;SDS011;30973;51.442;3.580;2023-01-06T17:29:25;12.25;;;5.60;;